Terminal Aerodrome Forecast
Issued by NWS Sterling, VA

Current Version | Previous Version | Text Only | Print | Product List | Glossary On
Versions: 1 2 3 4 5 6 7 8 9 10 11 12 13 14 15 16 17 18 19 20 21 22
000
FTUS41 KLWX 202054 AAA
TAFIAD
TAF AMD
KIAD 202054Z 2021/2124 32013G20KT P6SM SKC
     FM210000 33009KT P6SM SKC
     FM210400 VRB03KT P6SM SKC
     FM211600 33006KT P6SM FEW150=

USA.gov is the U.S. government's official web portal to all federal, state and local government web resources and services.